D07

Faith Municipal Airport

Faith, South Dakota, USA
METAR KD07 200056Z AUTO 06015KT 13/12 A3000 RMK AO1 SLP165 T01330117
Observed Flight Rules
Sep-20 @ 00:56 UTC (22 minutes ago)
Wind
60° at 15 knots
Temperatures Readings
Current 13°C / 55°F
Dewpoint 12°C / 54°F
Humidity 94%
Altimeter 30" Hg
Pressure 1016.5 hPa
Elevation 784
METAR KD07 200056Z AUTO 06015KT 13/12 A3000 RMK AO1 SLP165 T01330117
Observed Flight Rules
Sep-20 @ 00:56 UTC
(22 minutes ago)
Wind
60° at 15 knots
Temperature Dewpoint
13°C / 55°F 12°C / 54°F
Humidity Altimeter Pressure
94% 30" Hg 1016.5 hPa